sensor_id;sensor_type;location;lat;lon;timestamp;temperature;humidity
3360;DHT22;1693;49.602;11.046;2023-06-01T00:22:34;12.30;99.90
3360;DHT22;1693;49.602;11.046;2023-06-01T00:25:05;12.10;99.90
3360;DHT22;1693;49.602;11.046;2023-06-01T00:27:32;11.90;99.90
3360;DHT22;1693;49.602;11.046;2023-06-01T00:30:00;11.90;99.90
3360;DHT22;1693;49.602;11.046;2023-06-01T00:32:27;11.90;99.90
3360;DHT22;1693;49.602;11.046;2023-06-01T00:34:55;11.80;99.90
3360;DHT22;1693;49.602;11.046;2023-06-01T00:37:22;11.70;99.90
3360;DHT22;1693;49.602;11.046;2023-06-01T00:39:50;11.60;99.90
3360;DHT22;1693;49.602;11.046;2023-06-01T00:42:16;11.60;99.90
3360;DHT22;1693;49.602;11.046;2023-06-01T00:44:43;11.60;99.90
3360;DHT22;1693;49.602;11.046;2023-06-01T00:47:10;11.70;99.90
3360;DHT22;1693;49.602;11.046;2023-06-01T00:49:37;11.80;99.90
3360;DHT22;1693;49.602;11.046;2023-06-01T00:52:07;11.80;99.90
3360;DHT22;1693;49.602;11.046;2023-06-01T00:54:34;11.80;99.90
3360;DHT22;1693;49.602;11.046;2023-06-01T00:57:01;11.80;99.90
3360;DHT22;1693;49.602;11.046;2023-06-01T00:59:28;11.70;99.90
3360;DHT22;1693;49.602;11.046;2023-06-01T01:01:56;11.70;99.90
3360;DHT22;1693;49.602;11.046;2023-06-01T01:04:23;11.60;99.90
3360;DHT22;1693;49.602;11.046;2023-06-01T01:06:58;11.70;99.90
3360;DHT22;1693;49.602;11.046;2023-06-01T01:09:36;11.60;99.90
3360;DHT22;1693;49.602;11.046;2023-06-01T01:12:17;11.60;99.90
3360;DHT22;1693;49.602;11.046;2023-06-01T01:14:50;11.50;99.90
3360;DHT22;1693;49.602;11.046;2023-06-01T01:17:25;11.50;99.90
3360;DHT22;1693;49.602;11.046;2023-06-01T01:20:02;11.40;99.90
3360;DHT22;1693;49.602;11.046;2023-06-01T01:22:53;11.40;99.90
3360;DHT22;1693;49.602;11.046;2023-06-01T01:25:41;11.30;99.90
3360;DHT22;1693;49.602;11.046;2023-06-01T01:28:31;11.30;99.90
3360;DHT22;1693;49.602;11.046;2023-06-01T01:31:00;11.20;99.90
3360;DHT22;1693;49.602;11.046;2023-06-01T01:33:29;11.20;99.90
3360;DHT22;1693;49.602;11.046;2023-06-01T01:35:59;11.30;99.90
3360;DHT22;1693;49.602;11.046;2023-06-01T01:38:27;11.20;99.90
3360;DHT22;1693;49.602;11.046;2023-06-01T01:40:54;11.10;99.90
3360;DHT22;1693;49.602;11.046;2023-06-01T01:43:22;11.10;99.90
3360;DHT22;1693;49.602;11.046;2023-06-01T01:45:55;11.10;99.90
3360;DHT22;1693;49.602;11.046;2023-06-01T01:48:30;11.10;99.90
3360;DHT22;1693;49.602;11.046;2023-06-01T01:51:02;11.00;99.90
3360;DHT22;1693;49.602;11.046;2023-06-01T01:53:31;11.10;99.90
3360;DHT22;1693;49.602;11.046;2023-06-01T01:55:58;11.00;99.90
3360;DHT22;1693;49.602;11.046;2023-06-01T01:58:27;10.90;99.90
3360;DHT22;1693;49.602;11.046;2023-06-01T02:01:03;10.90;99.90
3360;DHT22;1693;49.602;11.046;2023-06-01T02:03:31;10.80;99.90
3360;DHT22;1693;49.602;11.046;2023-06-01T02:05:58;10.80;99.90
3360;DHT22;1693;49.602;11.046;2023-06-01T02:08:25;10.80;99.90
3360;DHT22;1693;49.602;11.046;2023-06-01T02:10:52;10.70;99.90
3360;DHT22;1693;49.602;11.046;2023-06-01T02:13:19;10.50;99.90
3360;DHT22;1693;49.602;11.046;2023-06-01T02:15:46;10.40;99.90
3360;DHT22;1693;49.602;11.046;2023-06-01T02:18:15;10.50;99.90
3360;DHT22;1693;49.602;11.046;2023-06-01T02:20:43;10.40;99.90
3360;DHT22;1693;49.602;11.046;2023-06-01T02:23:10;10.40;99.90
3360;DHT22;1693;49.602;11.046;2023-06-01T02:25:37;10.30;99.90
3360;DHT22;1693;49.602;11.046;2023-06-01T02:28:04;10.30;99.90
3360;DHT22;1693;49.602;11.046;2023-06-01T02:30:32;10.30;99.90
3360;DHT22;1693;49.602;11.046;2023-06-01T02:33:00;10.10;99.90
3360;DHT22;1693;49.602;11.046;2023-06-01T02:35:28;10.10;99.90
3360;DHT22;1693;49.602;11.046;2023-06-01T02:37:55;10.10;99.90
3360;DHT22;1693;49.602;11.046;2023-06-01T02:40:22;10.00;99.90
3360;DHT22;1693;49.602;11.046;2023-06-01T02:42:50;10.10;99.90
3360;DHT22;1693;49.602;11.046;2023-06-01T02:45:16;10.10;99.90
3360;DHT22;1693;49.602;11.046;2023-06-01T02:47:44;10.10;99.90
3360;DHT22;1693;49.602;11.046;2023-06-01T02:50:11;10.10;99.90
3360;DHT22;1693;49.602;11.046;2023-06-01T02:52:39;10.10;99.90
3360;DHT22;1693;49.602;11.046;2023-06-01T02:55:08;10.10;99.90
3360;DHT22;1693;49.602;11.046;2023-06-01T02:57:35;10.00;99.90
3360;DHT22;1693;49.602;11.046;2023-06-01T03:00:02;10.00;99.90
3360;DHT22;1693;49.602;11.046;2023-06-01T03:02:41;10.00;99.90
3360;DHT22;1693;49.602;11.046;2023-06-01T03:05:08;10.00;99.90
3360;DHT22;1693;49.602;11.046;2023-06-01T03:07:40;10.00;99.90
3360;DHT22;1693;49.602;11.046;2023-06-01T03:10:08;9.90;99.90
3360;DHT22;1693;49.602;11.046;2023-06-01T03:12:35;9.90;99.90
3360;DHT22;1693;49.602;11.046;2023-06-01T03:15:03;9.80;99.90
3360;DHT22;1693;49.602;11.046;2023-06-01T03:17:31;9.80;99.90
3360;DHT22;1693;49.602;11.046;2023-06-01T03:19:59;9.80;99.90
3360;DHT22;1693;49.602;11.046;2023-06-01T03:22:26;9.80;99.90
3360;DHT22;1693;49.602;11.046;2023-06-01T03:24:55;9.70;99.90
3360;DHT22;1693;49.602;11.046;2023-06-01T03:27:23;9.60;99.90
3360;DHT22;1693;49.602;11.046;2023-06-01T03:29:50;9.70;99.90
3360;DHT22;1693;49.602;11.046;2023-06-01T03:32:17;9.70;99.90
3360;DHT22;1693;49.602;11.046;2023-06-01T03:34:45;9.70;99.90
3360;DHT22;1693;49.602;11.046;2023-06-01T03:37:12;9.70;99.90
3360;DHT22;1693;49.602;11.046;2023-06-01T03:39:39;9.80;99.90
3360;DHT22;1693;49.602;11.046;2023-06-01T03:42:07;9.80;99.90
3360;DHT22;1693;49.602;11.046;2023-06-01T03:44:35;9.70;99.90
3360;DHT22;1693;49.602;11.046;2023-06-01T03:47:02;9.60;99.90
3360;DHT22;1693;49.602;11.046;2023-06-01T03:49:29;9.70;99.90
3360;DHT22;1693;49.602;11.046;2023-06-01T03:51:56;9.70;99.90
3360;DHT22;1693;49.602;11.046;2023-06-01T03:54:23;9.70;99.90
3360;DHT22;1693;49.602;11.046;2023-06-01T03:56:50;9.80;99.90
3360;DHT22;1693;49.602;11.046;2023-06-01T03:59:19;9.80;99.90
3360;DHT22;1693;49.602;11.046;2023-06-01T04:01:47;9.80;99.90
3360;DHT22;1693;49.602;11.046;2023-06-01T04:04:14;9.80;99.90
3360;DHT22;1693;49.602;11.046;2023-06-01T04:06:42;9.80;99.90
3360;DHT22;1693;49.602;11.046;2023-06-01T04:09:11;9.90;99.90
3360;DHT22;1693;49.602;11.046;2023-06-01T04:11:40;9.80;99.90
3360;DHT22;1693;49.602;11.046;2023-06-01T04:14:07;9.80;99.90
3360;DHT22;1693;49.602;11.046;2023-06-01T04:16:36;9.90;99.90
3360;DHT22;1693;49.602;11.046;2023-06-01T04:19:03;9.80;99.90
3360;DHT22;1693;49.602;11.046;2023-06-01T04:21:30;9.90;99.90
3360;DHT22;1693;49.602;11.046;2023-06-01T04:23:57;10.00;99.90
3360;DHT22;1693;49.602;11.046;2023-06-01T04:26:24;10.20;99.90
3360;DHT22;1693;49.602;11.046;2023-06-01T04:28:53;10.30;99.90
3360;DHT22;1693;49.602;11.046;2023-06-01T04:31:22;10.30;99.90
3360;DHT22;1693;49.602;11.046;2023-06-01T04:33:51;10.30;99.90
3360;DHT22;1693;49.602;11.046;2023-06-01T04:36:19;10.30;99.90
3360;DHT22;1693;49.602;11.046;2023-06-01T04:38:48;10.40;99.90
3360;DHT22;1693;49.602;11.046;2023-06-01T04:41:20;10.50;99.90
3360;DHT22;1693;49.602;11.046;2023-06-01T04:43:47;10.60;99.90
3360;DHT22;1693;49.602;11.046;2023-06-01T04:46:18;10.70;99.90
3360;DHT22;1693;49.602;11.046;2023-06-01T04:48:46;10.90;99.90
3360;DHT22;1693;49.602;11.046;2023-06-01T04:51:15;10.90;99.90
3360;DHT22;1693;49.602;11.046;2023-06-01T04:53:46;11.10;99.90
3360;DHT22;1693;49.602;11.046;2023-06-01T04:56:16;11.30;99.90
3360;DHT22;1693;49.602;11.046;2023-06-01T06:07:53;17.40;99.90
3360;DHT22;1693;49.602;11.046;2023-06-01T06:10:20;17.40;99.90
3360;DHT22;1693;49.602;11.046;2023-06-01T06:12:47;17.50;99.90
3360;DHT22;1693;49.602;11.046;2023-06-01T06:15:16;17.60;99.90
3360;DHT22;1693;49.602;11.046;2023-06-01T06:17:44;17.90;99.90
3360;DHT22;1693;49.602;11.046;2023-06-01T06:20:12;18.20;99.90
3360;DHT22;1693;49.602;11.046;2023-06-01T06:22:42;18.30;99.90
3360;DHT22;1693;49.602;11.046;2023-06-01T06:25:11;18.60;99.90
3360;DHT22;1693;49.602;11.046;2023-06-01T06:27:38;18.70;99.90
3360;DHT22;1693;49.602;11.046;2023-06-01T06:30:07;18.80;99.90
3360;DHT22;1693;49.602;11.046;2023-06-01T06:32:34;19.10;99.90
3360;DHT22;1693;49.602;11.046;2023-06-01T06:35:03;19.20;99.90
3360;DHT22;1693;49.602;11.046;2023-06-01T06:37:31;19.40;99.90
3360;DHT22;1693;49.602;11.046;2023-06-01T06:39:58;19.50;99.90
3360;DHT22;1693;49.602;11.046;2023-06-01T06:42:25;19.70;99.90
3360;DHT22;1693;49.602;11.046;2023-06-01T06:44:53;19.90;99.90
3360;DHT22;1693;49.602;11.046;2023-06-01T06:47:21;20.00;99.90
3360;DHT22;1693;49.602;11.046;2023-06-01T06:49:50;20.00;99.90
3360;DHT22;1693;49.602;11.046;2023-06-01T06:52:19;20.20;99.90
3360;DHT22;1693;49.602;11.046;2023-06-01T06:54:46;20.20;99.90
3360;DHT22;1693;49.602;11.046;2023-06-01T06:57:13;20.40;99.90
3360;DHT22;1693;49.602;11.046;2023-06-01T06:59:40;20.60;99.90
3360;DHT22;1693;49.602;11.046;2023-06-01T07:02:07;20.60;99.90
3360;DHT22;1693;49.602;11.046;2023-06-01T07:04:34;20.70;99.90
3360;DHT22;1693;49.602;11.046;2023-06-01T07:07:01;20.80;99.90
3360;DHT22;1693;49.602;11.046;2023-06-01T07:09:31;20.90;99.90
3360;DHT22;1693;49.602;11.046;2023-06-01T07:11:59;20.80;99.90
3360;DHT22;1693;49.602;11.046;2023-06-01T07:14:27;20.90;99.90
3360;DHT22;1693;49.602;11.046;2023-06-01T07:16:55;21.10;99.90
3360;DHT22;1693;49.602;11.046;2023-06-01T07:19:22;21.00;99.90
3360;DHT22;1693;49.602;11.046;2023-06-01T07:24:18;21.70;99.90
3360;DHT22;1693;49.602;11.046;2023-06-01T07:26:47;21.90;99.90
3360;DHT22;1693;49.602;11.046;2023-06-01T07:29:17;21.80;99.90
3360;DHT22;1693;49.602;11.046;2023-06-01T07:31:44;22.00;99.40
3360;DHT22;1693;49.602;11.046;2023-06-01T07:34:11;21.60;97.90
3360;DHT22;1693;49.602;11.046;2023-06-01T07:36:39;21.70;97.10
3360;DHT22;1693;49.602;11.046;2023-06-01T07:39:06;21.90;97.00
3360;DHT22;1693;49.602;11.046;2023-06-01T07:41:34;22.10;96.50
3360;DHT22;1693;49.602;11.046;2023-06-01T07:44:03;22.10;96.80
3360;DHT22;1693;49.602;11.046;2023-06-01T07:46:31;22.30;96.70
3360;DHT22;1693;49.602;11.046;2023-06-01T07:48:58;22.20;95.40
3360;DHT22;1693;49.602;11.046;2023-06-01T07:51:25;21.90;94.20
3360;DHT22;1693;49.602;11.046;2023-06-01T07:53:52;22.20;95.10
3360;DHT22;1693;49.602;11.046;2023-06-01T07:56:23;22.50;95.80
3360;DHT22;1693;49.602;11.046;2023-06-01T07:58:52;22.60;94.10
3360;DHT22;1693;49.602;11.046;2023-06-01T08:01:20;23.00;95.00
3360;DHT22;1693;49.602;11.046;2023-06-01T08:03:47;23.00;96.40
3360;DHT22;1693;49.602;11.046;2023-06-01T08:06:16;22.60;93.80
3360;DHT22;1693;49.602;11.046;2023-06-01T08:08:43;23.00;92.40
3360;DHT22;1693;49.602;11.046;2023-06-01T08:11:11;23.30;92.60
3360;DHT22;1693;49.602;11.046;2023-06-01T08:13:38;23.30;91.00
3360;DHT22;1693;49.602;11.046;2023-06-01T08:16:07;23.50;91.40
3360;DHT22;1693;49.602;11.046;2023-06-01T08:18:35;23.50;91.80
3360;DHT22;1693;49.602;11.046;2023-06-01T08:21:02;23.90;91.90
3360;DHT22;1693;49.602;11.046;2023-06-01T08:23:30;23.90;90.00
3360;DHT22;1693;49.602;11.046;2023-06-01T08:25:57;23.40;90.10
3360;DHT22;1693;49.602;11.046;2023-06-01T08:28:26;23.20;90.00
3360;DHT22;1693;49.602;11.046;2023-06-01T08:30:53;23.30;81.30
3360;DHT22;1693;49.602;11.046;2023-06-01T08:33:20;23.40;82.20
3360;DHT22;1693;49.602;11.046;2023-06-01T08:35:48;23.50;84.30
3360;DHT22;1693;49.602;11.046;2023-06-01T08:38:15;23.50;83.00
3360;DHT22;1693;49.602;11.046;2023-06-01T08:40:44;23.50;81.60
3360;DHT22;1693;49.602;11.046;2023-06-01T08:43:18;23.60;79.80
3360;DHT22;1693;49.602;11.046;2023-06-01T08:45:46;23.70;78.00
3360;DHT22;1693;49.602;11.046;2023-06-01T08:48:15;24.00;77.20
3360;DHT22;1693;49.602;11.046;2023-06-01T08:50:43;24.30;80.30
3360;DHT22;1693;49.602;11.046;2023-06-01T08:53:12;24.40;79.70
3360;DHT22;1693;49.602;11.046;2023-06-01T08:55:40;24.50;80.90
3360;DHT22;1693;49.602;11.046;2023-06-01T08:58:07;24.60;77.80
3360;DHT22;1693;49.602;11.046;2023-06-01T09:00:35;24.60;79.60
3360;DHT22;1693;49.602;11.046;2023-06-01T09:03:03;24.50;77.30
3360;DHT22;1693;49.602;11.046;2023-06-01T09:05:32;24.90;76.40
3360;DHT22;1693;49.602;11.046;2023-06-01T09:07:59;24.50;75.00
3360;DHT22;1693;49.602;11.046;2023-06-01T09:10:27;24.60;77.90
3360;DHT22;1693;49.602;11.046;2023-06-01T09:12:55;24.90;78.10
3360;DHT22;1693;49.602;11.046;2023-06-01T09:15:22;25.10;73.10
3360;DHT22;1693;49.602;11.046;2023-06-01T09:17:52;25.30;71.60
3360;DHT22;1693;49.602;11.046;2023-06-01T09:20:31;25.50;68.30
3360;DHT22;1693;49.602;11.046;2023-06-01T09:22:58;25.80;65.80
3360;DHT22;1693;49.602;11.046;2023-06-01T09:25:28;26.10;67.80
3360;DHT22;1693;49.602;11.046;2023-06-01T09:27:58;26.00;64.60
3360;DHT22;1693;49.602;11.046;2023-06-01T09:30:26;25.90;61.80
3360;DHT22;1693;49.602;11.046;2023-06-01T09:33:10;26.30;63.70
3360;DHT22;1693;49.602;11.046;2023-06-01T09:35:41;26.70;65.10
3360;DHT22;1693;49.602;11.046;2023-06-01T09:38:08;26.60;61.50
3360;DHT22;1693;49.602;11.046;2023-06-01T09:40:37;26.30;61.70
3360;DHT22;1693;49.602;11.046;2023-06-01T09:43:19;26.10;61.10
3360;DHT22;1693;49.602;11.046;2023-06-01T09:46:04;25.80;64.70
3360;DHT22;1693;49.602;11.046;2023-06-01T09:48:33;25.80;64.90
3360;DHT22;1693;49.602;11.046;2023-06-01T09:51:00;25.90;65.30
3360;DHT22;1693;49.602;11.046;2023-06-01T09:53:27;26.20;60.20
3360;DHT22;1693;49.602;11.046;2023-06-01T09:55:59;25.90;61.20
3360;DHT22;1693;49.602;11.046;2023-06-01T09:58:27;25.90;63.30
3360;DHT22;1693;49.602;11.046;2023-06-01T10:00:55;25.80;63.60
3360;DHT22;1693;49.602;11.046;2023-06-01T10:03:26;25.90;65.50
3360;DHT22;1693;49.602;11.046;2023-06-01T10:05:54;26.70;67.00
3360;DHT22;1693;49.602;11.046;2023-06-01T10:08:23;26.80;67.40
3360;DHT22;1693;49.602;11.046;2023-06-01T10:10:50;26.50;61.70
3360;DHT22;1693;49.602;11.046;2023-06-01T10:13:19;26.30;62.10
3360;DHT22;1693;49.602;11.046;2023-06-01T10:15:48;26.10;65.60
3360;DHT22;1693;49.602;11.046;2023-06-01T10:18:16;26.00;64.10
3360;DHT22;1693;49.602;11.046;2023-06-01T10:20:44;25.70;60.50
3360;DHT22;1693;49.602;11.046;2023-06-01T10:23:11;25.50;63.40
3360;DHT22;1693;49.602;11.046;2023-06-01T10:25:41;25.70;61.80
3360;DHT22;1693;49.602;11.046;2023-06-01T10:28:11;25.70;60.70
3360;DHT22;1693;49.602;11.046;2023-06-01T10:30:40;26.10;61.00
3360;DHT22;1693;49.602;11.046;2023-06-01T10:33:07;26.40;59.60
3360;DHT22;1693;49.602;11.046;2023-06-01T10:36:02;26.70;59.60
3360;DHT22;1693;49.602;11.046;2023-06-01T10:38:30;27.00;59.80
3360;DHT22;1693;49.602;11.046;2023-06-01T10:41:28;27.20;59.70
3360;DHT22;1693;49.602;11.046;2023-06-01T10:43:56;26.70;60.20
3360;DHT22;1693;49.602;11.046;2023-06-01T10:46:39;26.60;61.40
3360;DHT22;1693;49.602;11.046;2023-06-01T10:49:07;26.90;58.90
3360;DHT22;1693;49.602;11.046;2023-06-01T10:51:34;27.30;61.20
3360;DHT22;1693;49.602;11.046;2023-06-01T10:54:29;27.60;57.20
3360;DHT22;1693;49.602;11.046;2023-06-01T10:57:18;27.60;56.20
3360;DHT22;1693;49.602;11.046;2023-06-01T11:00:11;28.20;58.30
3360;DHT22;1693;49.602;11.046;2023-06-01T11:02:52;27.70;58.40
3360;DHT22;1693;49.602;11.046;2023-06-01T11:05:50;27.90;56.00
3360;DHT22;1693;49.602;11.046;2023-06-01T11:08:53;28.50;54.10
3360;DHT22;1693;49.602;11.046;2023-06-01T11:11:20;29.70;53.30
3360;DHT22;1693;49.602;11.046;2023-06-01T11:14:08;29.70;54.20
3360;DHT22;1693;49.602;11.046;2023-06-01T11:16:37;29.30;53.40
3360;DHT22;1693;49.602;11.046;2023-06-01T11:19:06;29.70;53.70
3360;DHT22;1693;49.602;11.046;2023-06-01T11:21:37;29.80;55.00
3360;DHT22;1693;49.602;11.046;2023-06-01T11:24:10;30.70;55.40
3360;DHT22;1693;49.602;11.046;2023-06-01T11:26:41;30.90;53.40
3360;DHT22;1693;49.602;11.046;2023-06-01T11:29:11;31.60;52.20
3360;DHT22;1693;49.602;11.046;2023-06-01T11:34:12;33.30;89.60
3360;DHT22;1693;49.602;11.046;2023-06-01T11:36:41;33.10;50.40
3360;DHT22;1693;49.602;11.046;2023-06-01T11:39:19;32.90;48.80
3360;DHT22;1693;49.602;11.046;2023-06-01T11:41:48;32.50;46.60
3360;DHT22;1693;49.602;11.046;2023-06-01T11:47:04;33.80;45.80
3360;DHT22;1693;49.602;11.046;2023-06-01T11:49:42;34.40;42.70
3360;DHT22;1693;49.602;11.046;2023-06-01T11:52:10;34.90;44.60
3360;DHT22;1693;49.602;11.046;2023-06-01T11:54:38;33.70;43.80
3360;DHT22;1693;49.602;11.046;2023-06-01T11:57:06;33.60;44.30
3360;DHT22;1693;49.602;11.046;2023-06-01T12:02:16;33.00;44.40
3360;DHT22;1693;49.602;11.046;2023-06-01T12:04:54;33.40;42.50
3360;DHT22;1693;49.602;11.046;2023-06-01T12:07:22;34.10;43.10
3360;DHT22;1693;49.602;11.046;2023-06-01T12:09:50;33.30;43.40
3360;DHT22;1693;49.602;11.046;2023-06-01T12:12:19;33.30;41.80
3360;DHT22;1693;49.602;11.046;2023-06-01T12:14:48;33.70;41.90
3360;DHT22;1693;49.602;11.046;2023-06-01T12:17:16;34.90;43.30
3360;DHT22;1693;49.602;11.046;2023-06-01T12:19:48;35.80;39.80
3360;DHT22;1693;49.602;11.046;2023-06-01T12:22:15;35.20;42.20
3360;DHT22;1693;49.602;11.046;2023-06-01T12:27:14;36.20;42.30
3360;DHT22;1693;49.602;11.046;2023-06-01T12:29:43;34.40;41.40
3360;DHT22;1693;49.602;11.046;2023-06-01T12:32:11;32.70;42.40
3360;DHT22;1693;49.602;11.046;2023-06-01T12:34:40;34.90;42.20
3360;DHT22;1693;49.602;11.046;2023-06-01T12:37:17;35.70;41.40
3360;DHT22;1693;49.602;11.046;2023-06-01T12:39:51;36.40;40.80
3360;DHT22;1693;49.602;11.046;2023-06-01T12:42:19;36.70;40.30
3360;DHT22;1693;49.602;11.046;2023-06-01T12:44:52;35.90;39.20
3360;DHT22;1693;49.602;11.046;2023-06-01T12:47:20;35.80;40.70
3360;DHT22;1693;49.602;11.046;2023-06-01T12:50:02;35.10;40.90
3360;DHT22;1693;49.602;11.046;2023-06-01T12:52:31;36.60;39.30
3360;DHT22;1693;49.602;11.046;2023-06-01T12:54:58;35.40;40.90
3360;DHT22;1693;49.602;11.046;2023-06-01T12:57:25;35.10;42.70
3360;DHT22;1693;49.602;11.046;2023-06-01T12:59:53;34.40;42.90
3360;DHT22;1693;49.602;11.046;2023-06-01T13:02:20;35.70;40.80
3360;DHT22;1693;49.602;11.046;2023-06-01T13:04:47;36.50;40.00
3360;DHT22;1693;49.602;11.046;2023-06-01T13:07:14;37.10;38.10
3360;DHT22;1693;49.602;11.046;2023-06-01T13:09:43;35.20;39.40
3360;DHT22;1693;49.602;11.046;2023-06-01T13:12:10;34.60;39.00
3360;DHT22;1693;49.602;11.046;2023-06-01T13:14:37;35.60;41.20
3360;DHT22;1693;49.602;11.046;2023-06-01T13:17:05;35.60;40.50
3360;DHT22;1693;49.602;11.046;2023-06-01T13:19:33;34.70;40.20
3360;DHT22;1693;49.602;11.046;2023-06-01T13:22:00;34.40;40.30
3360;DHT22;1693;49.602;11.046;2023-06-01T13:24:27;35.30;39.40
3360;DHT22;1693;49.602;11.046;2023-06-01T13:26:57;33.90;40.20
3360;DHT22;1693;49.602;11.046;2023-06-01T13:29:24;35.20;38.00
3360;DHT22;1693;49.602;11.046;2023-06-01T13:31:51;36.00;38.10
3360;DHT22;1693;49.602;11.046;2023-06-01T13:34:18;35.80;38.60
3360;DHT22;1693;49.602;11.046;2023-06-01T13:36:47;34.80;37.70
3360;DHT22;1693;49.602;11.046;2023-06-01T13:39:14;35.90;40.20
3360;DHT22;1693;49.602;11.046;2023-06-01T13:41:41;35.30;39.80
3360;DHT22;1693;49.602;11.046;2023-06-01T13:44:10;34.90;40.20
3360;DHT22;1693;49.602;11.046;2023-06-01T13:46:37;37.60;38.90
3360;DHT22;1693;49.602;11.046;2023-06-01T13:49:04;36.50;36.80
3360;DHT22;1693;49.602;11.046;2023-06-01T13:51:32;34.50;39.70
3360;DHT22;1693;49.602;11.046;2023-06-01T13:54:03;34.50;38.90
3360;DHT22;1693;49.602;11.046;2023-06-01T13:56:30;34.80;38.20
3360;DHT22;1693;49.602;11.046;2023-06-01T13:58:58;36.10;37.50
3360;DHT22;1693;49.602;11.046;2023-06-01T14:01:26;34.80;37.80
3360;DHT22;1693;49.602;11.046;2023-06-01T14:03:54;36.10;38.00
3360;DHT22;1693;49.602;11.046;2023-06-01T14:06:21;35.60;36.20
3360;DHT22;1693;49.602;11.046;2023-06-01T14:11:16;35.40;37.00
3360;DHT22;1693;49.602;11.046;2023-06-01T14:13:43;37.40;36.40
3360;DHT22;1693;49.602;11.046;2023-06-01T14:16:12;36.70;36.30
3360;DHT22;1693;49.602;11.046;2023-06-01T14:18:40;36.60;36.20
3360;DHT22;1693;49.602;11.046;2023-06-01T14:21:07;36.10;37.20
3360;DHT22;1693;49.602;11.046;2023-06-01T14:23:35;36.20;37.60
3360;DHT22;1693;49.602;11.046;2023-06-01T14:26:02;35.50;37.00
3360;DHT22;1693;49.602;11.046;2023-06-01T14:28:30;35.40;37.60
3360;DHT22;1693;49.602;11.046;2023-06-01T14:30:56;35.70;37.40
3360;DHT22;1693;49.602;11.046;2023-06-01T14:35:53;35.30;35.70
3360;DHT22;1693;49.602;11.046;2023-06-01T14:38:20;36.00;36.40
3360;DHT22;1693;49.602;11.046;2023-06-01T14:40:47;35.80;37.30
3360;DHT22;1693;49.602;11.046;2023-06-01T14:43:14;36.60;36.20
3360;DHT22;1693;49.602;11.046;2023-06-01T14:45:41;37.20;36.50
3360;DHT22;1693;49.602;11.046;2023-06-01T14:48:09;37.30;36.20
3360;DHT22;1693;49.602;11.046;2023-06-01T14:50:36;37.40;36.20
3360;DHT22;1693;49.602;11.046;2023-06-01T14:53:04;37.00;37.20
3360;DHT22;1693;49.602;11.046;2023-06-01T14:57:59;36.30;36.10
3360;DHT22;1693;49.602;11.046;2023-06-01T15:02:55;35.70;37.10
3360;DHT22;1693;49.602;11.046;2023-06-01T15:05:22;35.00;35.90
3360;DHT22;1693;49.602;11.046;2023-06-01T15:07:49;35.80;37.30
3360;DHT22;1693;49.602;11.046;2023-06-01T15:10:19;36.10;37.00
3360;DHT22;1693;49.602;11.046;2023-06-01T15:12:47;35.00;37.40
3360;DHT22;1693;49.602;11.046;2023-06-01T15:15:15;35.60;38.00
3360;DHT22;1693;49.602;11.046;2023-06-01T15:17:42;35.50;37.90
3360;DHT22;1693;49.602;11.046;2023-06-01T15:20:10;35.60;37.90
3360;DHT22;1693;49.602;11.046;2023-06-01T15:22:38;35.50;37.50
3360;DHT22;1693;49.602;11.046;2023-06-01T15:25:07;35.80;37.90
3360;DHT22;1693;49.602;11.046;2023-06-01T15:27:35;35.70;37.70
3360;DHT22;1693;49.602;11.046;2023-06-01T15:30:05;35.40;37.40
3360;DHT22;1693;49.602;11.046;2023-06-01T15:37:28;34.30;38.50
3360;DHT22;1693;49.602;11.046;2023-06-01T15:39:56;35.30;38.30
3360;DHT22;1693;49.602;11.046;2023-06-01T15:42:23;35.40;38.90
3360;DHT22;1693;49.602;11.046;2023-06-01T15:44:51;35.20;39.20
3360;DHT22;1693;49.602;11.046;2023-06-01T15:47:18;35.90;37.10
3360;DHT22;1693;49.602;11.046;2023-06-01T15:54:40;34.60;38.10
3360;DHT22;1693;49.602;11.046;2023-06-01T15:57:07;34.70;37.90
3360;DHT22;1693;49.602;11.046;2023-06-01T15:59:36;35.20;38.40
3360;DHT22;1693;49.602;11.046;2023-06-01T16:02:08;34.30;39.70
3360;DHT22;1693;49.602;11.046;2023-06-01T16:09:33;34.30;39.30
3360;DHT22;1693;49.602;11.046;2023-06-01T16:12:01;34.80;39.30
3360;DHT22;1693;49.602;11.046;2023-06-01T16:14:28;34.90;39.00
3360;DHT22;1693;49.602;11.046;2023-06-01T16:16:56;33.10;38.80
3360;DHT22;1693;49.602;11.046;2023-06-01T16:19:24;32.10;41.30
3360;DHT22;1693;49.602;11.046;2023-06-01T16:21:51;31.70;42.10
3360;DHT22;1693;49.602;11.046;2023-06-01T16:24:18;31.50;43.60
3360;DHT22;1693;49.602;11.046;2023-06-01T16:26:45;31.30;43.00
3360;DHT22;1693;49.602;11.046;2023-06-01T16:29:12;31.20;41.50
3360;DHT22;1693;49.602;11.046;2023-06-01T16:31:40;31.70;41.70
3360;DHT22;1693;49.602;11.046;2023-06-01T16:34:07;31.10;43.10
3360;DHT22;1693;49.602;11.046;2023-06-01T16:36:35;30.20;42.50
3360;DHT22;1693;49.602;11.046;2023-06-01T16:39:03;29.70;44.50
3360;DHT22;1693;49.602;11.046;2023-06-01T16:41:30;30.30;45.10
3360;DHT22;1693;49.602;11.046;2023-06-01T16:43:57;31.00;44.00
3360;DHT22;1693;49.602;11.046;2023-06-01T16:51:19;32.80;42.20
3360;DHT22;1693;49.602;11.046;2023-06-01T16:53:49;33.20;43.00
3360;DHT22;1693;49.602;11.046;2023-06-01T16:56:17;33.70;42.70
3360;DHT22;1693;49.602;11.046;2023-06-01T16:58:44;34.20;41.20
3360;DHT22;1693;49.602;11.046;2023-06-01T17:01:11;33.80;42.40
3360;DHT22;1693;49.602;11.046;2023-06-01T17:03:38;33.60;42.70
3360;DHT22;1693;49.602;11.046;2023-06-01T17:06:06;33.30;40.10
3360;DHT22;1693;49.602;11.046;2023-06-01T17:08:34;32.60;40.80
3360;DHT22;1693;49.602;11.046;2023-06-01T17:11:03;32.40;40.40
3360;DHT22;1693;49.602;11.046;2023-06-01T17:13:30;33.10;39.80
3360;DHT22;1693;49.602;11.046;2023-06-01T17:15:59;32.90;40.80
3360;DHT22;1693;49.602;11.046;2023-06-01T17:18:26;32.50;40.80
3360;DHT22;1693;49.602;11.046;2023-06-01T17:20:53;32.60;41.10
3360;DHT22;1693;49.602;11.046;2023-06-01T17:23:20;32.50;40.70
3360;DHT22;1693;49.602;11.046;2023-06-01T17:25:47;32.60;41.70
3360;DHT22;1693;49.602;11.046;2023-06-01T17:28:15;32.10;41.90
3360;DHT22;1693;49.602;11.046;2023-06-01T17:30:43;32.20;40.10
3360;DHT22;1693;49.602;11.046;2023-06-01T17:33:10;31.90;40.60
3360;DHT22;1693;49.602;11.046;2023-06-01T17:35:38;31.90;40.00
3360;DHT22;1693;49.602;11.046;2023-06-01T17:38:05;30.90;40.60
3360;DHT22;1693;49.602;11.046;2023-06-01T17:52:51;29.20;43.80
3360;DHT22;1693;49.602;11.046;2023-06-01T17:55:18;29.00;44.50
3360;DHT22;1693;49.602;11.046;2023-06-01T17:57:45;28.80;45.50
3360;DHT22;1693;49.602;11.046;2023-06-01T18:00:13;28.10;46.40
3360;DHT22;1693;49.602;11.046;2023-06-01T18:02:46;28.00;47.10
3360;DHT22;1693;49.602;11.046;2023-06-01T18:05:13;27.50;47.40
3360;DHT22;1693;49.602;11.046;2023-06-01T18:07:41;27.20;48.00
3360;DHT22;1693;49.602;11.046;2023-06-01T18:10:09;26.70;48.00
3360;DHT22;1693;49.602;11.046;2023-06-01T18:12:36;26.20;49.40
3360;DHT22;1693;49.602;11.046;2023-06-01T18:15:04;26.00;50.80
3360;DHT22;1693;49.602;11.046;2023-06-01T18:17:31;25.90;51.30
3360;DHT22;1693;49.602;11.046;2023-06-01T18:20:01;25.80;52.10
3360;DHT22;1693;49.602;11.046;2023-06-01T18:22:30;25.30;51.80
3360;DHT22;1693;49.602;11.046;2023-06-01T18:25:00;24.80;53.60